createdAt,value
2022-10-04T00:01:50.516Z,99.90
2022-10-04T00:04:26.709Z,99.90
2022-10-04T00:07:00.438Z,99.90
2022-10-04T00:09:34.821Z,99.90
2022-10-04T00:12:05.759Z,99.90
2022-10-04T00:14:37.396Z,99.90
2022-10-04T00:17:12.225Z,99.90
2022-10-04T00:19:57.234Z,99.90
2022-10-04T00:22:26.753Z,99.90
2022-10-04T00:25:20.242Z,99.90
2022-10-04T00:28:25.528Z,99.90
2022-10-04T00:31:18.445Z,99.90
2022-10-04T00:33:47.756Z,99.90
2022-10-04T00:36:53.773Z,99.90
2022-10-04T00:39:42.073Z,99.90
2022-10-04T00:42:38.105Z,99.90
2022-10-04T00:45:13.642Z,99.90
2022-10-04T00:48:05.774Z,99.90
2022-10-04T00:50:39.379Z,99.90
2022-10-04T00:53:20.128Z,99.90
2022-10-04T00:55:52.549Z,99.90
2022-10-04T00:58:28.398Z,99.90
2022-10-04T01:00:58.742Z,99.90
2022-10-04T01:03:31.724Z,99.90
2022-10-04T01:06:06.383Z,99.90
2022-10-04T01:08:40.666Z,99.90
2022-10-04T01:11:12.693Z,99.90
2022-10-04T01:13:43.855Z,99.90
2022-10-04T01:16:23.576Z,99.90
2022-10-04T01:18:51.915Z,99.90
2022-10-04T01:21:29.487Z,99.90
2022-10-04T01:24:22.326Z,99.90
2022-10-04T01:26:51.107Z,99.90
2022-10-04T01:29:25.396Z,99.90
2022-10-04T01:31:56.149Z,99.90
2022-10-04T01:34:26.035Z,99.90
2022-10-04T01:36:56.583Z,99.90
2022-10-04T01:39:28.017Z,99.90
2022-10-04T01:42:02.893Z,99.90
2022-10-04T01:44:35.361Z,99.90
2022-10-04T01:47:07.208Z,99.90
2022-10-04T01:49:39.604Z,99.90
2022-10-04T01:52:14.948Z,99.90
2022-10-04T01:54:49.044Z,99.90
2022-10-04T01:57:20.553Z,99.90
2022-10-04T01:59:53.658Z,99.90
2022-10-04T02:02:27.446Z,99.90
2022-10-04T02:04:58.996Z,99.90
2022-10-04T02:07:32.243Z,99.90
2022-10-04T02:10:06.170Z,99.90
2022-10-04T02:12:35.801Z,99.90
2022-10-04T02:15:08.086Z,99.90
2022-10-04T02:17:42.647Z,99.90
2022-10-04T02:20:16.046Z,99.90
2022-10-04T02:22:45.124Z,99.90
2022-10-04T02:25:17.108Z,99.90
2022-10-04T02:27:45.251Z,99.90
2022-10-04T02:30:14.986Z,99.90
2022-10-04T02:33:00.186Z,99.90
2022-10-04T02:35:34.186Z,99.90
2022-10-04T02:38:09.014Z,99.90
2022-10-04T02:40:45.998Z,99.90
2022-10-04T02:43:17.603Z,99.90
2022-10-04T02:45:52.144Z,99.90
2022-10-04T02:48:31.086Z,99.90
2022-10-04T02:51:03.264Z,99.90
2022-10-04T02:53:44.143Z,99.90
2022-10-04T02:56:14.321Z,99.90
2022-10-04T02:58:43.506Z,99.90
2022-10-04T03:01:18.909Z,99.90
2022-10-04T03:03:48.508Z,99.90
2022-10-04T03:06:19.939Z,99.90
2022-10-04T03:08:52.546Z,99.90
2022-10-04T03:11:25.525Z,99.90
2022-10-04T03:13:56.466Z,99.90
2022-10-04T03:16:26.950Z,99.90
2022-10-04T03:18:57.749Z,99.90
2022-10-04T03:21:26.691Z,99.90
2022-10-04T03:23:55.206Z,99.90
2022-10-04T03:26:30.768Z,99.90
2022-10-04T03:28:59.850Z,99.90
2022-10-04T03:31:29.484Z,99.90
2022-10-04T03:33:59.137Z,99.90
2022-10-04T03:36:28.391Z,99.90
2022-10-04T03:38:58.853Z,99.90
2022-10-04T03:41:28.603Z,99.90
2022-10-04T03:44:00.408Z,99.90
2022-10-04T03:46:32.238Z,99.90
2022-10-04T03:49:01.572Z,99.90
2022-10-04T03:51:30.007Z,99.90
2022-10-04T03:54:00.281Z,99.90
2022-10-04T03:56:32.283Z,99.90
2022-10-04T03:59:03.476Z,99.90
2022-10-04T04:01:39.932Z,99.90
2022-10-04T04:04:19.750Z,99.90
2022-10-04T04:06:56.210Z,99.90
2022-10-04T04:09:32.656Z,99.90
2022-10-04T04:12:11.962Z,99.90
2022-10-04T04:14:42.312Z,99.90
2022-10-04T04:17:36.906Z,99.90
2022-10-04T04:20:08.860Z,99.90
2022-10-04T04:22:37.845Z,99.90
2022-10-04T04:25:10.004Z,99.90
2022-10-04T04:27:45.140Z,99.90
2022-10-04T04:30:18.529Z,99.90
2022-10-04T04:32:51.506Z,99.90
2022-10-04T04:35:24.894Z,99.90
2022-10-04T04:38:14.745Z,99.90
2022-10-04T04:40:43.001Z,99.90
2022-10-04T04:43:18.993Z,99.90
2022-10-04T04:46:03.224Z,99.90
2022-10-04T04:48:39.168Z,99.90
2022-10-04T04:51:07.225Z,99.90
2022-10-04T04:53:37.061Z,99.90
2022-10-04T04:56:10.410Z,99.90
2022-10-04T04:58:46.966Z,99.90
2022-10-04T05:01:22.421Z,99.90
2022-10-04T05:04:02.213Z,99.90
2022-10-04T05:06:32.652Z,99.90
2022-10-04T05:09:01.956Z,99.90
2022-10-04T05:11:32.923Z,99.90
2022-10-04T05:14:06.793Z,99.90
2022-10-04T05:16:42.725Z,99.90
2022-10-04T05:19:16.920Z,99.90
2022-10-04T05:21:47.782Z,99.90
2022-10-04T05:24:22.668Z,99.90
2022-10-04T05:26:53.528Z,99.90
2022-10-04T05:29:26.984Z,99.90
2022-10-04T05:32:10.033Z,99.90
2022-10-04T05:34:41.064Z,99.90
2022-10-04T05:37:42.748Z,99.90
2022-10-04T05:40:30.550Z,99.90
2022-10-04T05:42:59.545Z,99.90
2022-10-04T05:45:31.056Z,99.90
2022-10-04T05:48:01.941Z,99.90
2022-10-04T05:50:32.672Z,99.90
2022-10-04T05:53:24.366Z,99.90
2022-10-04T05:56:05.625Z,99.90
2022-10-04T05:58:43.973Z,99.90
2022-10-04T06:01:39.289Z,99.90
2022-10-04T06:04:33.467Z,99.90
2022-10-04T06:07:05.557Z,99.90
2022-10-04T06:09:52.482Z,99.90
2022-10-04T06:12:33.579Z,99.90
2022-10-04T06:15:24.232Z,99.90
2022-10-04T06:18:17.577Z,99.90
2022-10-04T06:21:09.372Z,99.90
2022-10-04T06:23:45.015Z,99.90
2022-10-04T06:26:18.949Z,99.90
2022-10-04T06:28:50.280Z,99.90
2022-10-04T06:31:49.533Z,99.90
2022-10-04T06:34:42.212Z,99.90
2022-10-04T06:37:27.783Z,99.90
2022-10-04T06:40:22.071Z,30.60
2022-10-04T06:43:08.397Z,1.00
2022-10-04T06:45:52.661Z,1.00
2022-10-04T06:48:51.243Z,99.90
2022-10-04T06:51:35.663Z,1.00
2022-10-04T06:54:18.770Z,1.00
2022-10-04T06:56:56.022Z,99.90
2022-10-04T06:59:36.718Z,99.90
2022-10-04T07:02:12.391Z,1.00
2022-10-04T07:05:07.486Z,1.00
2022-10-04T07:07:42.000Z,1.00
2022-10-04T07:10:31.042Z,1.00
2022-10-04T07:13:14.457Z,1.00
2022-10-04T07:15:49.762Z,1.00
2022-10-04T07:18:24.724Z,1.00
2022-10-04T07:21:02.182Z,1.00
2022-10-04T07:23:37.178Z,1.00
2022-10-04T07:26:08.819Z,1.00
2022-10-04T07:29:01.684Z,1.00
2022-10-04T07:31:31.974Z,1.00
2022-10-04T07:34:03.380Z,1.00
2022-10-04T07:36:40.889Z,1.00
2022-10-04T07:39:16.282Z,1.00
2022-10-04T07:41:52.389Z,1.00
2022-10-04T07:44:31.083Z,1.00
2022-10-04T07:47:04.084Z,1.00
2022-10-04T07:49:39.180Z,1.00
2022-10-04T07:52:30.791Z,1.00
2022-10-04T07:55:08.157Z,1.00
2022-10-04T07:57:44.993Z,1.00
2022-10-04T08:00:18.361Z,1.00
2022-10-04T08:03:02.836Z,1.00
2022-10-04T08:05:37.348Z,1.00
2022-10-04T08:08:30.493Z,1.00
2022-10-04T08:11:08.563Z,99.90
2022-10-04T08:13:45.992Z,99.90
2022-10-04T08:16:23.709Z,99.90
2022-10-04T08:19:06.594Z,99.90
2022-10-04T08:21:43.146Z,1.00
2022-10-04T08:24:20.085Z,1.00
2022-10-04T08:27:05.794Z,1.00
2022-10-04T08:29:50.815Z,99.90
2022-10-04T08:32:54.727Z,99.90
2022-10-04T08:35:36.258Z,1.00
2022-10-04T08:38:26.478Z,1.00
2022-10-04T08:41:51.654Z,99.90
2022-10-04T08:44:49.615Z,27.90
2022-10-04T08:47:45.862Z,1.00
2022-10-04T08:50:56.435Z,99.90
2022-10-04T08:53:49.772Z,99.90
2022-10-04T08:56:22.380Z,99.90
2022-10-04T08:59:26.830Z,1.00
2022-10-04T09:02:47.946Z,99.90
2022-10-04T09:05:53.954Z,1.00
2022-10-04T09:09:03.951Z,99.90
2022-10-04T09:11:51.085Z,99.90
2022-10-04T09:14:42.315Z,99.90
2022-10-04T09:17:22.784Z,99.90
2022-10-04T09:20:13.902Z,99.90
2022-10-04T09:22:57.215Z,99.90
2022-10-04T09:25:49.718Z,99.90
2022-10-04T09:28:47.082Z,99.90
2022-10-04T09:31:38.739Z,96.30
2022-10-04T09:34:37.300Z,1.00
2022-10-04T09:37:33.481Z,99.90
2022-10-04T09:40:47.191Z,59.70
2022-10-04T09:43:42.657Z,1.00
2022-10-04T09:46:19.604Z,1.00
2022-10-04T09:48:59.241Z,99.90
2022-10-04T09:52:03.250Z,1.00
2022-10-04T09:55:11.667Z,99.90
2022-10-04T09:57:54.255Z,1.00
2022-10-04T10:00:25.188Z,99.90
2022-10-04T10:03:31.097Z,99.90
2022-10-04T10:06:20.372Z,99.90
2022-10-04T10:09:03.102Z,16.10
2022-10-04T10:12:01.918Z,1.00
2022-10-04T10:15:08.781Z,1.00
2022-10-04T10:17:45.374Z,1.00
2022-10-04T10:20:45.188Z,99.90
2022-10-04T10:23:55.169Z,99.90
2022-10-04T10:26:55.056Z,99.90
2022-10-04T10:29:52.785Z,99.90
2022-10-04T10:32:47.248Z,1.00
2022-10-04T10:35:27.778Z,1.00
2022-10-04T10:38:24.426Z,52.10
2022-10-04T10:41:09.478Z,1.30
2022-10-04T10:43:53.066Z,1.00
2022-10-04T10:46:38.484Z,1.00
2022-10-04T10:49:42.329Z,1.00
2022-10-04T10:52:42.454Z,1.00
2022-10-04T10:55:30.457Z,24.30
2022-10-04T10:58:26.375Z,1.00
2022-10-04T11:01:12.448Z,1.00
2022-10-04T11:04:16.952Z,99.90
2022-10-04T11:07:25.999Z,99.90
2022-10-04T11:10:26.348Z,99.90
2022-10-04T11:13:12.858Z,20.80
2022-10-04T11:16:17.402Z,99.90
2022-10-04T11:19:19.263Z,85.20
2022-10-04T11:22:44.790Z,99.90
2022-10-04T11:25:39.785Z,99.90
2022-10-04T11:28:18.358Z,99.90
2022-10-04T11:31:17.430Z,99.90
2022-10-04T11:34:18.771Z,99.90
2022-10-04T11:37:02.828Z,99.90
2022-10-04T11:39:50.707Z,99.90
2022-10-04T11:42:32.090Z,99.90
2022-10-04T11:45:23.571Z,99.90
2022-10-04T11:48:03.118Z,1.00
2022-10-04T11:50:42.251Z,1.00
2022-10-04T11:53:36.253Z,1.00
2022-10-04T11:56:19.380Z,99.90
2022-10-04T11:58:58.869Z,1.00
2022-10-04T12:01:59.898Z,99.90
2022-10-04T12:05:07.503Z,99.90
2022-10-04T12:07:50.458Z,99.90
2022-10-04T12:10:26.489Z,99.90
2022-10-04T12:13:34.573Z,99.90
2022-10-04T12:16:36.211Z,99.90
2022-10-04T12:19:42.749Z,99.90
2022-10-04T12:22:29.134Z,99.90
2022-10-04T12:25:27.962Z,99.90
2022-10-04T12:28:34.709Z,99.90
2022-10-04T12:31:19.111Z,19.70
2022-10-04T12:33:54.747Z,59.60
2022-10-04T12:36:48.664Z,96.70
2022-10-04T12:39:30.049Z,24.10
2022-10-04T12:42:08.506Z,1.00
2022-10-04T12:44:51.147Z,1.00
2022-10-04T12:48:03.196Z,1.00
2022-10-04T12:50:46.885Z,1.00
2022-10-04T12:53:24.324Z,1.00
2022-10-04T12:56:13.214Z,5.20
2022-10-04T12:59:03.044Z,40.90
2022-10-04T13:01:41.984Z,84.50
2022-10-04T13:04:21.942Z,1.00
2022-10-04T13:07:01.821Z,1.00
2022-10-04T13:09:55.124Z,1.00
2022-10-04T13:12:41.468Z,1.00
2022-10-04T13:15:24.938Z,1.00
2022-10-04T13:18:07.068Z,1.00
2022-10-04T13:20:56.773Z,1.00
2022-10-04T13:23:48.814Z,1.00
2022-10-04T13:26:34.273Z,99.90
2022-10-04T13:29:07.687Z,1.00
2022-10-04T13:31:42.691Z,1.00
2022-10-04T13:34:25.928Z,1.00
2022-10-04T13:37:09.473Z,1.00
2022-10-04T13:40:22.021Z,99.90
2022-10-04T13:43:05.414Z,1.00
2022-10-04T13:45:50.500Z,99.90
2022-10-04T13:48:54.477Z,99.90
2022-10-04T13:52:21.435Z,99.90
2022-10-04T13:55:16.978Z,99.90
2022-10-04T13:57:54.308Z,99.90
2022-10-04T14:00:52.274Z,99.90
2022-10-04T14:03:36.173Z,99.90
2022-10-04T14:06:29.837Z,99.90
2022-10-04T14:09:24.967Z,99.90
2022-10-04T14:12:26.817Z,99.90
2022-10-04T14:15:36.743Z,99.90
2022-10-04T14:18:42.801Z,99.90
2022-10-04T14:21:34.301Z,99.90
2022-10-04T14:24:45.952Z,99.90
2022-10-04T14:27:43.479Z,99.90
2022-10-04T14:30:30.749Z,99.90
2022-10-04T14:33:20.081Z,99.90
2022-10-04T14:35:54.307Z,99.90
2022-10-04T14:38:48.724Z,99.90
2022-10-04T14:41:45.546Z,99.90
2022-10-04T14:44:45.335Z,99.90
2022-10-04T14:47:49.196Z,1.00
2022-10-04T14:50:25.933Z,1.00
2022-10-04T14:53:09.184Z,1.00
2022-10-04T14:56:06.320Z,1.00
2022-10-04T14:58:48.475Z,1.00
2022-10-04T15:01:21.355Z,1.00
2022-10-04T15:04:11.335Z,1.00
2022-10-04T15:06:49.141Z,1.00
2022-10-04T15:09:43.239Z,24.40
2022-10-04T15:13:09.419Z,3.30
2022-10-04T15:15:55.955Z,50.20
2022-10-04T15:18:33.371Z,99.90
2022-10-04T15:21:06.846Z,99.90
2022-10-04T15:23:39.979Z,99.90
2022-10-04T15:26:51.734Z,99.90
2022-10-04T15:29:26.353Z,99.90
2022-10-04T15:32:07.344Z,99.90
2022-10-04T15:34:45.608Z,99.90
2022-10-04T15:37:26.560Z,99.90
2022-10-04T15:40:05.618Z,1.00
2022-10-04T15:42:35.763Z,1.00
2022-10-04T15:45:50.860Z,1.00
2022-10-04T15:48:33.006Z,1.00
2022-10-04T15:51:17.312Z,1.00
2022-10-04T15:54:04.749Z,1.00
2022-10-04T15:56:47.231Z,1.00
2022-10-04T15:59:39.100Z,99.90
2022-10-04T16:02:39.911Z,99.90
2022-10-04T16:05:19.065Z,1.00
2022-10-04T16:08:15.710Z,1.00
2022-10-04T16:11:03.352Z,26.30
2022-10-04T16:13:47.401Z,99.90
2022-10-04T16:16:59.870Z,1.00
2022-10-04T16:19:56.571Z,91.50
2022-10-04T16:22:31.239Z,1.00
2022-10-04T16:25:01.221Z,99.90
2022-10-04T16:28:05.781Z,1.00
2022-10-04T16:30:43.461Z,1.00
2022-10-04T16:33:32.296Z,99.90
2022-10-04T16:36:11.861Z,62.00
2022-10-04T16:39:01.978Z,99.90
2022-10-04T16:42:15.701Z,99.90
2022-10-04T16:44:51.116Z,1.00
2022-10-04T16:48:05.698Z,1.00
2022-10-04T16:51:05.273Z,99.90
2022-10-04T16:53:49.233Z,99.90
2022-10-04T16:56:21.609Z,1.00
2022-10-04T16:58:56.850Z,1.00
2022-10-04T17:02:00.181Z,4.50
2022-10-04T17:04:55.572Z,12.60
2022-10-04T17:07:34.527Z,99.90
2022-10-04T17:10:18.904Z,99.90
2022-10-04T17:12:58.971Z,99.90
2022-10-04T17:15:48.207Z,99.90
2022-10-04T17:18:37.359Z,99.90
2022-10-04T17:21:30.362Z,99.90
2022-10-04T17:24:15.484Z,99.90
2022-10-04T17:27:06.757Z,99.90
2022-10-04T17:29:50.401Z,99.90
2022-10-04T17:32:25.802Z,99.90
2022-10-04T17:35:09.076Z,99.90
2022-10-04T17:37:46.292Z,99.90
2022-10-04T17:40:37.425Z,99.90
2022-10-04T17:43:16.826Z,99.90
2022-10-04T17:46:18.173Z,99.90
2022-10-04T17:49:07.189Z,99.90
2022-10-04T17:52:05.128Z,99.90
2022-10-04T17:54:57.636Z,99.90
2022-10-04T17:57:30.734Z,99.90
2022-10-04T18:00:09.407Z,99.90
2022-10-04T18:03:11.419Z,99.90
2022-10-04T18:05:50.966Z,99.90
2022-10-04T18:08:26.465Z,99.90
2022-10-04T18:10:58.495Z,99.90
2022-10-04T18:13:32.750Z,99.90
2022-10-04T18:16:10.894Z,99.90
2022-10-04T18:18:43.166Z,99.90
2022-10-04T18:21:28.546Z,99.90
2022-10-04T18:23:59.560Z,1.00
2022-10-04T18:26:30.919Z,1.00
2022-10-04T18:29:04.512Z,1.00
2022-10-04T18:31:37.447Z,1.00
2022-10-04T18:34:23.256Z,1.00
2022-10-04T18:37:05.484Z,1.00
2022-10-04T18:39:44.963Z,1.00
2022-10-04T18:42:23.479Z,1.00
2022-10-04T18:44:59.213Z,1.00
2022-10-04T18:47:38.195Z,1.00
2022-10-04T18:50:18.803Z,1.00
2022-10-04T18:52:59.126Z,1.00
2022-10-04T18:55:38.725Z,1.00
2022-10-04T18:58:42.388Z,1.00
2022-10-04T19:01:42.198Z,1.00
2022-10-04T19:04:17.998Z,1.00
2022-10-04T19:06:48.180Z,1.00
2022-10-04T19:09:26.031Z,1.00
2022-10-04T19:11:58.754Z,1.00
2022-10-04T19:14:35.216Z,1.00
2022-10-04T19:17:06.297Z,1.00
2022-10-04T19:19:43.017Z,1.00
2022-10-04T19:22:23.607Z,1.00
2022-10-04T19:25:16.349Z,1.00
2022-10-04T19:28:02.225Z,1.00
2022-10-04T19:30:48.284Z,1.00
2022-10-04T19:33:22.809Z,1.00
2022-10-04T19:36:03.320Z,1.00
2022-10-04T19:38:41.046Z,1.00
2022-10-04T19:41:20.564Z,1.00
2022-10-04T19:43:55.050Z,1.00
2022-10-04T19:46:36.202Z,1.00
2022-10-04T19:49:09.778Z,1.00
2022-10-04T19:51:43.206Z,1.00
2022-10-04T19:54:15.922Z,16.60
2022-10-04T19:56:47.795Z,3.50
2022-10-04T19:59:22.845Z,18.70
2022-10-04T20:01:53.221Z,31.60
2022-10-04T20:04:38.731Z,27.50
2022-10-04T20:07:13.366Z,34.60
2022-10-04T20:09:56.502Z,22.10
2022-10-04T20:12:35.324Z,32.90
2022-10-04T20:15:39.138Z,1.00
2022-10-04T20:19:05.124Z,1.00
2022-10-04T20:21:33.130Z,1.00
2022-10-04T20:24:01.686Z,10.60
2022-10-04T20:27:04.450Z,6.60
2022-10-04T20:30:07.623Z,1.00
2022-10-04T20:32:57.321Z,1.00
2022-10-04T20:36:06.073Z,1.00
2022-10-04T20:38:54.753Z,1.00
2022-10-04T20:42:22.753Z,1.00
2022-10-04T20:45:07.602Z,1.00
2022-10-04T20:47:43.815Z,2.50
2022-10-04T20:50:18.523Z,1.80
2022-10-04T20:52:49.902Z,12.60
2022-10-04T20:55:25.184Z,17.10
2022-10-04T20:57:53.939Z,25.30
2022-10-04T21:00:25.880Z,38.40
2022-10-04T21:03:14.280Z,14.00
2022-10-04T21:05:42.538Z,2.90
2022-10-04T21:08:15.800Z,14.40
2022-10-04T21:11:16.949Z,9.10
2022-10-04T21:13:58.941Z,11.50
2022-10-04T21:16:52.284Z,8.50
2022-10-04T21:19:46.745Z,11.80
2022-10-04T21:22:37.576Z,8.80
2022-10-04T21:25:41.520Z,22.40
2022-10-04T21:28:31.431Z,36.20
2022-10-04T21:31:04.769Z,21.10
2022-10-04T21:33:34.860Z,17.80
2022-10-04T21:36:06.871Z,16.30
2022-10-04T21:38:35.145Z,6.90
2022-10-04T21:41:03.369Z,2.60
2022-10-04T21:43:31.953Z,1.00
2022-10-04T21:46:00.133Z,1.00
2022-10-04T21:48:28.674Z,1.00
2022-10-04T21:50:57.207Z,1.00
2022-10-04T21:53:26.936Z,1.00
2022-10-04T21:55:55.338Z,1.00
2022-10-04T21:58:24.838Z,8.60
2022-10-04T22:00:52.893Z,4.10
2022-10-04T22:03:21.456Z,9.40
2022-10-04T22:05:49.502Z,9.60
2022-10-04T22:08:17.922Z,18.60
2022-10-04T22:10:52.207Z,14.40
2022-10-04T22:13:24.748Z,4.60
2022-10-04T22:15:52.843Z,1.00
2022-10-04T22:18:20.842Z,1.90
2022-10-04T22:20:52.485Z,1.60
2022-10-04T22:23:24.943Z,2.80
2022-10-04T22:25:55.595Z,7.60
2022-10-04T22:28:25.757Z,2.20
2022-10-04T22:30:55.782Z,9.50
2022-10-04T22:33:33.948Z,2.60
2022-10-04T22:36:14.985Z,1.00
2022-10-04T22:38:45.451Z,1.00
2022-10-04T22:41:17.714Z,1.00
2022-10-04T22:43:46.392Z,2.00
2022-10-04T22:46:17.067Z,5.20
2022-10-04T22:48:46.930Z,16.20
2022-10-04T22:51:17.042Z,24.20
2022-10-04T22:53:46.947Z,27.70
2022-10-04T22:56:16.840Z,31.50
2022-10-04T22:58:45.187Z,43.30
2022-10-04T23:01:15.822Z,26.60
2022-10-04T23:03:46.536Z,23.00
2022-10-04T23:06:15.321Z,36.80
2022-10-04T23:08:43.548Z,33.00
2022-10-04T23:11:12.509Z,39.30
2022-10-04T23:13:41.978Z,35.70
2022-10-04T23:16:14.568Z,37.10
2022-10-04T23:18:42.710Z,41.00
2022-10-04T23:21:21.888Z,54.60
2022-10-04T23:23:51.119Z,60.00
2022-10-04T23:26:25.261Z,58.50
2022-10-04T23:28:54.801Z,54.60
2022-10-04T23:31:25.633Z,53.20
2022-10-04T23:33:56.495Z,41.40
2022-10-04T23:36:24.633Z,47.80
2022-10-04T23:39:01.333Z,59.60
2022-10-04T23:41:29.892Z,59.10
2022-10-04T23:43:59.232Z,55.80
2022-10-04T23:46:27.197Z,60.40
2022-10-04T23:48:58.196Z,63.90
2022-10-04T23:51:26.239Z,58.80
2022-10-04T23:53:54.379Z,71.40
2022-10-04T23:56:25.109Z,87.40
2022-10-04T23:58:56.000Z,97.80
